หน้าหลัก
METAR-TAF:

METAR-TAF

ท่าอากาศยาน :

Kinloss, สกอตแลนด์

ละติจูด: 57-39N, ลองจิจูด: 003-34W, ความสูง: 7 ม.

การสังเกตสภาพอากาศปัจจุบัน

รายงานได้ทำขึ้นเมื่อ 34 นาทีที่แล้ว ณ เวลา 03:20 UTC
ลม 2 นอตจากใต้
อุณหภูมิ 5°C
ความชื้น 93%
ความกดอากาศ 1011 hPa
ทัศนวิสัย 10 กม. หรือมากกว่า

METAR: EGQK 130320Z AUTO 17002KT 9999 NCD 05/04 Q1011

เวลา: 04:54 (03:54 UTC)


TAF: หายไป

สังเกตการณ์สภาพอากาศและพยากรณ์อากาศของสนามบินมากกว่า 4000 แห่ง (รายงาน METAR และ TAF).

สถานีที่ดูได้จะแสดงไว้ด้วยจุดสีเหลืองและสีแดงบนแผนที่.

เลื่อนเมาส์ไปเหนือจุดเพื่อดูชื่อสถานี.

แล้วคลิกเพื่อดูสังเกตการณ์และการพยากรณ์สภาพอากาศ.

ในการเปลี่ยนแผนที่: คลิกที่ปุ่มสีเขียวที่มีกากบาทสีดำเพื่อซูมเข้า; ที่ปุ่มสีเขียวที่มีขีดเพื่อซูมออก; หรือที่ลูกศรสีเขียวเพื่อไปยังแผนที่ที่อยู่ติดกัน.


METAR-TAF: